Time;durP1;ratioP1;P1;durP2;ratioP2;P2;SDS_P1;SDS_P2;PMS_P1;PMS_P2;Temp;Humidity;BMP_temperature;BMP_pressure;BME280_temperature;BME280_humidity;BME280_pressure;Samples;Min_cycle;Max_cycle;Signal;HPM_P1;HPM_P2
2021/03/07 00:00:11;;;;;;;14.35;8.38;;;-0.70;1.00;;;;;;4905928;29;20134;-76
2021/03/07 00:02:39;;;;;;;12.52;7.65;;;-0.80;1.00;;;;;;4895472;29;20112;-75
2021/03/07 00:05:15;;;;;;;12.98;7.60;;;-0.70;1.00;;;;;;4904132;29;20052;-75
2021/03/07 00:07:42;;;;;;;13.77;8.80;;;-0.80;1.00;;;;;;4900736;29;20083;-76
2021/03/07 00:10:11;;;;;;;15.48;8.30;;;-0.70;1.00;;;;;;4907882;29;20047;-77
2021/03/07 00:12:39;;;;;;;14.52;8.82;;;-0.70;1.00;;;;;;4903817;29;20062;-78
2021/03/07 00:15:09;;;;;;;12.98;8.13;;;-0.70;1.00;;;;;;4905494;29;20048;-75
2021/03/07 00:17:36;;;;;;;15.30;9.10;;;-0.80;1.00;;;;;;4900726;29;20135;-75
2021/03/07 00:20:05;;;;;;;11.40;8.18;;;-0.90;1.00;;;;;;4910964;29;20068;-78
2021/03/07 00:22:33;;;;;;;12.60;8.00;;;-1.00;1.00;;;;;;4913230;29;20063;-76
2021/03/07 00:25:01;;;;;;;13.05;8.23;;;-1.00;1.00;;;;;;4907026;29;20054;-76
2021/03/07 00:27:28;;;;;;;13.25;8.20;;;-1.10;1.00;;;;;;4900218;29;20154;-74
2021/03/07 00:29:55;;;;;;;12.50;8.32;;;-1.00;1.00;;;;;;4902273;29;20411;-75
2021/03/07 00:32:23;;;;;;;13.40;8.20;;;-1.20;1.00;;;;;;4900221;29;20059;-77
2021/03/07 00:34:51;;;;;;;14.55;8.07;;;-1.30;1.00;;;;;;4910291;29;20111;-76
2021/03/07 00:37:18;;;;;;;13.15;8.80;;;-1.20;1.00;;;;;;4904489;29;20136;-77
2021/03/07 00:39:45;;;;;;;11.82;7.43;;;-1.00;1.00;;;;;;4904399;29;20087;-77
2021/03/07 00:42:12;;;;;;;12.98;8.40;;;-1.10;1.00;;;;;;4903998;29;20112;-76
2021/03/07 00:44:40;;;;;;;12.25;7.82;;;-1.10;1.00;;;;;;4901259;29;20088;-75
2021/03/07 00:47:07;;;;;;;12.88;8.02;;;-1.20;1.00;;;;;;4904045;29;20495;-75
2021/03/07 00:49:35;;;;;;;13.77;7.78;;;-1.00;1.00;;;;;;4903356;29;20652;-74
2021/03/07 00:52:03;;;;;;;10.45;6.97;;;-1.20;1.00;;;;;;4906396;29;20048;-76
2021/03/07 00:54:30;;;;;;;10.93;7.75;;;-1.20;1.00;;;;;;4909943;29;20087;-74
2021/03/07 00:56:58;;;;;;;13.75;7.80;;;-1.20;1.00;;;;;;4900632;29;20098;-75
2021/03/07 00:59:25;;;;;;;13.00;8.50;;;-1.30;1.00;;;;;;4896976;29;20101;-75
2021/03/07 01:01:52;;;;;;;10.43;7.05;;;-1.10;1.00;;;;;;4902538;29;20139;-73
2021/03/07 01:04:20;;;;;;;10.32;6.25;;;-1.00;1.00;;;;;;4901666;29;20056;-75
2021/03/07 01:06:48;;;;;;;9.73;6.57;;;-0.70;1.00;;;;;;4903673;29;20059;-75
2021/03/07 01:09:15;;;;;;;10.13;6.32;;;-0.60;1.00;;;;;;4898161;29;20492;-75
2021/03/07 01:12:00;;;;;;;11.38;6.72;;;-0.60;1.00;;;;;;4913192;29;20052;-74
2021/03/07 01:14:27;;;;;;;9.48;7.07;;;-0.70;1.00;;;;;;4905277;29;20057;-75
2021/03/07 01:16:54;;;;;;;10.70;6.38;;;-0.70;1.00;;;;;;4909568;29;20067;-77
2021/03/07 01:19:22;;;;;;;10.90;7.03;;;-0.70;1.00;;;;;;4906294;29;20048;-77
2021/03/07 01:21:50;;;;;;;11.27;7.32;;;-0.60;1.00;;;;;;4911347;29;20651;-76
2021/03/07 01:24:17;;;;;;;10.85;7.28;;;-0.70;1.00;;;;;;4908382;29;20049;-76
2021/03/07 01:26:44;;;;;;;14.55;8.02;;;-1.00;1.00;;;;;;4909341;29;20048;-76
2021/03/07 01:29:11;;;;;;;14.00;7.85;;;-0.90;1.00;;;;;;4905974;29;20059;-77
2021/03/07 01:31:38;;;;;;;10.10;7.20;;;-1.00;1.00;;;;;;4906635;29;20060;-77
2021/03/07 01:34:05;;;;;;;12.27;7.57;;;-1.20;1.00;;;;;;4900200;29;20056;-75
2021/03/07 01:36:32;;;;;;;12.50;7.80;;;-1.00;1.00;;;;;;4912258;29;20061;-75
2021/03/07 01:39:00;;;;;;;13.23;7.78;;;-1.10;1.00;;;;;;4903403;29;20053;-74
2021/03/07 01:41:27;;;;;;;11.50;7.13;;;-1.20;1.00;;;;;;4907348;29;20052;-74
2021/03/07 01:43:54;;;;;;;12.07;7.57;;;-1.10;1.00;;;;;;4912762;29;20462;-76
2021/03/07 01:46:22;;;;;;;13.27;8.20;;;-1.10;1.00;;;;;;4902311;29;20478;-74
2021/03/07 01:48:50;;;;;;;11.25;7.25;;;-1.10;1.00;;;;;;4903771;29;20538;-75
2021/03/07 01:51:18;;;;;;;12.65;7.80;;;-1.20;1.00;;;;;;4914750;29;20056;-75
2021/03/07 01:53:46;;;;;;;12.35;7.43;;;-1.20;1.00;;;;;;4912303;29;20060;-74
2021/03/07 01:56:16;;;;;;;15.30;7.07;;;-1.30;1.00;;;;;;4908355;29;20506;-75
2021/03/07 01:58:48;;;;;;;11.40;7.35;;;-1.40;1.00;;;;;;4901345;29;20427;-76
2021/03/07 02:01:15;;;;;;;13.45;7.72;;;-1.20;1.00;;;;;;4907304;29;20465;-75
2021/03/07 02:03:52;;;;;;;11.00;7.22;;;-1.10;1.00;;;;;;4911770;29;20059;-75
2021/03/07 02:06:20;;;;;;;10.48;6.78;;;-1.30;1.00;;;;;;4907849;29;20051;-75
2021/03/07 02:08:48;;;;;;;11.90;7.03;;;-1.30;1.00;;;;;;4902756;29;20067;-75
2021/03/07 02:11:16;;;;;;;12.30;6.82;;;-1.20;1.00;;;;;;4907530;29;20131;-76
2021/03/07 02:13:46;;;;;;;11.80;7.75;;;-1.20;1.00;;;;;;4901572;29;20078;-76
2021/03/07 02:16:17;;;;;;;11.20;6.82;;;-1.10;1.00;;;;;;4908831;29;20135;-77
2021/03/07 02:18:47;;;;;;;13.90;7.50;;;-1.20;1.00;;;;;;4901664;29;20070;-77
2021/03/07 02:21:19;;;;;;;11.02;7.40;;;-1.20;1.00;;;;;;4910873;29;20055;-76
2021/03/07 02:23:58;;;;;;;11.63;7.00;;;-1.20;1.00;;;;;;4905143;29;20067;-77
2021/03/07 02:26:26;;;;;;;11.45;7.85;;;-1.30;1.00;;;;;;4905549;29;20415;-75
2021/03/07 02:28:53;;;;;;;13.35;6.90;;;-1.40;1.00;;;;;;4902430;29;20052;-76
2021/03/07 02:31:24;;;;;;;11.93;6.95;;;-1.40;1.00;;;;;;4907402;29;20483;-76
2021/03/07 02:33:59;;;;;;;11.65;7.25;;;-1.40;1.00;;;;;;4905050;29;20056;-77
2021/03/07 02:36:31;;;;;;;10.73;7.15;;;-1.40;1.00;;;;;;4906715;29;20057;-76
2021/03/07 02:39:02;;;;;;;12.07;7.30;;;-1.40;1.00;;;;;;4908646;29;20063;-77
2021/03/07 02:41:31;;;;;;;12.77;7.60;;;-1.40;1.00;;;;;;4910561;29;20414;-77
2021/03/07 02:44:02;;;;;;;8.65;6.07;;;-1.40;1.00;;;;;;4905434;29;20427;-76
2021/03/07 02:46:32;;;;;;;12.43;7.65;;;-1.20;1.00;;;;;;4903498;29;20044;-76
2021/03/07 02:49:03;;;;;;;9.90;6.60;;;-1.20;1.00;;;;;;4899706;29;20060;-79
2021/03/07 02:51:32;;;;;;;10.10;6.43;;;-1.10;1.00;;;;;;4908705;29;20060;-79
2021/03/07 02:54:04;;;;;;;11.32;6.38;;;-1.00;1.00;;;;;;4902173;29;20063;-77
2021/03/07 02:56:34;;;;;;;10.45;6.65;;;-1.10;1.00;;;;;;4902208;29;20049;-77
2021/03/07 02:59:08;;;;;;;9.90;5.88;;;-1.00;1.00;;;;;;4899642;29;20136;-77
2021/03/07 03:01:38;;;;;;;13.00;6.25;;;-1.10;1.00;;;;;;4906088;29;20056;-77
2021/03/07 03:04:07;;;;;;;8.95;6.18;;;-1.20;1.00;;;;;;4912868;29;20064;-77
2021/03/07 03:06:38;;;;;;;11.13;6.25;;;-1.30;1.00;;;;;;4907005;29;20110;-80
2021/03/07 03:09:11;;;;;;;9.27;6.07;;;-1.20;1.00;;;;;;4905628;29;20056;-77
2021/03/07 03:11:40;;;;;;;10.32;6.22;;;-1.20;1.00;;;;;;4905429;29;20057;-79
2021/03/07 03:14:09;;;;;;;10.45;6.43;;;-1.20;1.00;;;;;;4908720;29;20507;-78
2021/03/07 03:16:38;;;;;;;9.75;6.20;;;-1.20;1.00;;;;;;4898126;29;20111;-77
2021/03/07 03:19:08;;;;;;;8.82;6.20;;;-1.30;1.00;;;;;;4895630;29;20535;-76
2021/03/07 03:21:35;;;;;;;10.57;6.75;;;-1.40;1.00;;;;;;4910406;29;20074;-78
2021/03/07 03:24:03;;;;;;;9.63;6.65;;;-1.50;1.00;;;;;;4906470;29;20076;-78
2021/03/07 03:26:33;;;;;;;9.38;6.35;;;-1.40;1.00;;;;;;4901786;29;20057;-77
2021/03/07 03:29:03;;;;;;;11.30;6.63;;;-1.50;1.00;;;;;;4901261;29;20048;-79
2021/03/07 03:31:31;;;;;;;10.00;5.97;;;-1.60;1.00;;;;;;4909749;29;20052;-79
2021/03/07 03:33:59;;;;;;;10.48;6.15;;;-1.60;1.00;;;;;;4897182;29;20064;-77
2021/03/07 03:36:26;;;;;;;10.35;6.05;;;-1.50;1.00;;;;;;4903929;29;20544;-78
2021/03/07 03:38:57;;;;;;;11.65;7.50;;;-1.50;1.00;;;;;;4894404;29;20139;-79
2021/03/07 03:41:30;;;;;;;12.90;7.82;;;-1.50;1.00;;;;;;4897449;29;20052;-78
2021/03/07 03:44:02;;;;;;;11.55;7.35;;;-1.70;1.00;;;;;;4905417;29;20505;-78
2021/03/07 03:46:32;;;;;;;12.93;7.38;;;-1.80;1.00;;;;;;4911739;29;20474;-79
2021/03/07 03:49:03;;;;;;;14.40;7.95;;;-1.80;1.00;;;;;;4902453;29;20064;-78
2021/03/07 03:51:34;;;;;;;13.27;8.57;;;-1.90;1.00;;;;;;4910255;29;20076;-80
2021/03/07 03:54:04;;;;;;;15.88;9.48;;;-1.90;1.00;;;;;;4903066;29;20396;-79
2021/03/07 03:56:31;;;;;;;16.45;8.77;;;-1.80;1.00;;;;;;4908000;29;20060;-78
2021/03/07 03:59:01;;;;;;;14.43;9.02;;;-1.90;1.00;;;;;;4901210;29;20058;-75
2021/03/07 04:01:30;;;;;;;13.90;9.23;;;-1.80;1.00;;;;;;4903081;29;20052;-79
2021/03/07 04:04:00;;;;;;;13.93;8.95;;;-1.90;1.00;;;;;;4903340;29;20091;-75
2021/03/07 04:06:27;;;;;;;16.05;9.20;;;-1.90;1.00;;;;;;4899072;29;20059;-75
2021/03/07 04:08:55;;;;;;;14.32;9.65;;;-1.70;1.00;;;;;;4902178;29;20056;-77
2021/03/07 04:11:22;;;;;;;14.10;9.30;;;-1.70;1.00;;;;;;4902889;29;20051;-75
2021/03/07 04:13:50;;;;;;;16.77;9.95;;;-1.70;1.00;;;;;;4909123;29;20064;-75
2021/03/07 04:16:18;;;;;;;14.75;9.40;;;-1.70;1.00;;;;;;4897893;29;20061;-75
2021/03/07 04:18:47;;;;;;;15.30;9.98;;;-1.70;1.00;;;;;;4901960;29;20052;-75
2021/03/07 04:21:15;;;;;;;15.85;8.82;;;-1.70;1.00;;;;;;4903997;29;20059;-75
2021/03/07 04:23:42;;;;;;;17.60;9.98;;;-1.60;1.00;;;;;;4900008;29;20049;-76
2021/03/07 04:26:09;;;;;;;15.93;9.40;;;-1.70;1.00;;;;;;4911335;29;20074;-83
2021/03/07 04:28:38;;;;;;;13.55;9.18;;;-1.80;1.00;;;;;;4890890;29;20059;-75
2021/03/07 04:31:05;;;;;;;14.70;9.65;;;-1.70;1.00;;;;;;4906590;29;20059;-75
2021/03/07 04:33:33;;;;;;;13.65;9.07;;;-1.90;1.00;;;;;;4904851;29;20052;-76
2021/03/07 04:36:02;;;;;;;14.70;9.43;;;-2.00;1.00;;;;;;4897283;29;20052;-75
2021/03/07 04:38:29;;;;;;;19.05;9.13;;;-2.10;1.00;;;;;;4898111;29;20442;-77
2021/03/07 04:40:56;;;;;;;15.18;9.38;;;-2.00;1.00;;;;;;4910148;29;20414;-77
2021/03/07 04:43:24;;;;;;;14.13;8.63;;;-1.90;1.00;;;;;;4902002;29;20055;-76
2021/03/07 04:45:51;;;;;;;16.20;8.63;;;-1.90;1.00;;;;;;4907842;29;20844;-74
2021/03/07 04:48:19;;;;;;;17.02;9.48;;;-2.00;1.00;;;;;;4894201;29;20045;-76
2021/03/07 04:50:47;;;;;;;15.73;9.27;;;-1.90;1.00;;;;;;4912462;29;20048;-74
2021/03/07 04:53:14;;;;;;;14.65;8.65;;;-1.90;1.00;;;;;;4901499;29;20059;-76
2021/03/07 04:55:40;;;;;;;12.60;8.85;;;-2.00;1.00;;;;;;4909855;29;20052;-77
2021/03/07 04:58:07;;;;;;;13.18;8.45;;;-2.00;1.00;;;;;;4896152;29;20045;-78
2021/03/07 05:00:34;;;;;;;13.13;7.95;;;-1.90;1.00;;;;;;4909078;29;20518;-78
2021/03/07 05:03:01;;;;;;;13.18;8.45;;;-1.90;1.00;;;;;;4909162;29;20052;-77
2021/03/07 05:05:28;;;;;;;14.38;8.63;;;-1.90;1.00;;;;;;4898834;29;20419;-78
2021/03/07 05:07:56;;;;;;;14.25;8.48;;;-2.10;1.00;;;;;;4897596;29;20063;-77
2021/03/07 05:10:23;;;;;;;13.55;8.43;;;-2.20;1.00;;;;;;4908232;29;20057;-77
2021/03/07 05:12:49;;;;;;;14.57;9.18;;;-2.20;1.00;;;;;;4907905;29;20582;-77
2021/03/07 05:15:17;;;;;;;14.65;8.73;;;-2.30;1.00;;;;;;4908030;29;20134;-78
2021/03/07 05:17:43;;;;;;;15.48;9.07;;;-2.40;1.00;;;;;;4893039;29;20160;-77
2021/03/07 05:20:12;;;;;;;14.77;8.30;;;-2.20;1.00;;;;;;4900479;29;20503;-77
2021/03/07 05:22:39;;;;;;;16.73;9.60;;;-2.10;1.00;;;;;;4904923;29;20059;-77
2021/03/07 05:25:08;;;;;;;14.05;8.70;;;-2.20;1.00;;;;;;4901994;29;20044;-76
2021/03/07 05:27:38;;;;;;;16.05;9.40;;;-2.20;1.00;;;;;;4898650;29;20053;-76
2021/03/07 05:30:06;;;;;;;14.80;9.07;;;-2.30;1.00;;;;;;4904991;29;20494;-76
2021/03/07 05:32:33;;;;;;;15.25;9.15;;;-2.20;1.00;;;;;;4905895;29;20048;-76
2021/03/07 05:35:00;;;;;;;15.20;9.25;;;-2.30;1.00;;;;;;4903902;29;20051;-76
2021/03/07 05:37:27;;;;;;;16.63;8.93;;;-2.20;1.00;;;;;;4899390;29;20063;-76
2021/03/07 05:39:54;;;;;;;14.05;8.95;;;-2.30;1.00;;;;;;4903322;29;20052;-75
2021/03/07 05:42:22;;;;;;;17.20;9.30;;;-2.30;1.00;;;;;;4903975;29;20139;-77
2021/03/07 05:44:49;;;;;;;16.48;9.38;;;-2.40;1.00;;;;;;4908426;29;20060;-76
2021/03/07 05:47:17;;;;;;;15.23;9.30;;;-2.30;1.00;;;;;;4906546;29;20044;-77
2021/03/07 05:49:44;;;;;;;17.15;9.70;;;-2.40;1.00;;;;;;4898478;29;20055;-77
2021/03/07 05:52:11;;;;;;;15.43;9.45;;;-2.40;1.00;;;;;;4912246;29;20131;-77
2021/03/07 05:54:38;;;;;;;17.92;10.52;;;-2.50;1.00;;;;;;4901307;29;21600;-78
2021/03/07 05:57:07;;;;;;;14.93;9.85;;;-2.40;1.00;;;;;;4897808;29;20500;-76
2021/03/07 05:59:36;;;;;;;17.50;9.18;;;-2.30;1.00;;;;;;4900051;29;20055;-77
2021/03/07 06:02:03;;;;;;;14.70;9.02;;;-2.50;1.00;;;;;;4906812;29;20530;-76
2021/03/07 06:04:30;;;;;;;15.52;9.43;;;-2.40;1.00;;;;;;4908436;29;20048;-76
2021/03/07 06:06:57;;;;;;;14.77;9.27;;;-2.40;1.00;;;;;;4905052;29;20048;-75
2021/03/07 06:09:27;;;;;;;13.27;8.43;;;-2.30;1.00;;;;;;4903797;29;20056;-77
2021/03/07 06:11:55;;;;;;;12.85;8.68;;;-2.20;1.00;;;;;;4903167;29;20080;-77
2021/03/07 06:14:25;;;;;;;14.10;8.02;;;-2.30;1.00;;;;;;4905467;29;20054;-75
2021/03/07 06:17:04;;;;;;;11.88;8.25;;;-2.20;1.00;;;;;;4911399;29;20060;-77
2021/03/07 06:19:47;;;;;;;13.63;8.88;;;-2.10;1.00;;;;;;4900205;29;20535;-78
2021/03/07 06:22:14;;;;;;;12.77;8.10;;;-2.00;1.00;;;;;;4908394;29;20053;-76
2021/03/07 06:24:41;;;;;;;13.98;8.75;;;-1.80;1.00;;;;;;4904839;29;20063;-75
2021/03/07 06:27:11;;;;;;;14.50;9.25;;;-1.70;1.00;;;;;;4902189;29;20060;-75
2021/03/07 06:29:38;;;;;;;14.52;9.23;;;-1.70;1.00;;;;;;4902042;29;20620;-77
2021/03/07 06:32:16;;;;;;;13.88;8.20;;;-1.70;1.00;;;;;;4910343;29;20068;-77
2021/03/07 06:34:45;;;;;;;13.38;8.55;;;-1.60;1.00;;;;;;4910866;29;20074;-78
2021/03/07 06:37:12;;;;;;;14.05;8.57;;;-1.60;1.00;;;;;;4911761;29;20058;-77
2021/03/07 06:39:38;;;;;;;16.58;8.73;;;-1.50;1.00;;;;;;4906209;29;20140;-78
2021/03/07 06:42:08;;;;;;;12.50;7.70;;;-1.50;1.00;;;;;;4907740;29;20056;-78
2021/03/07 06:44:37;;;;;;;13.55;8.35;;;-1.40;1.00;;;;;;4902327;29;20076;-77
2021/03/07 06:47:10;;;;;;;13.60;8.32;;;-1.30;1.00;;;;;;4904879;29;20058;-78
2021/03/07 06:49:38;;;;;;;14.85;7.93;;;-1.20;1.00;;;;;;4903503;29;20052;-78
2021/03/07 06:52:13;;;;;;;11.23;7.40;;;-1.20;1.00;;;;;;4907169;29;20055;-77
2021/03/07 06:54:41;;;;;;;13.38;8.32;;;-1.10;1.00;;;;;;4905439;29;20491;-77
2021/03/07 06:57:08;;;;;;;11.48;7.80;;;-1.00;1.00;;;;;;4906266;29;20155;-78
2021/03/07 06:59:35;;;;;;;11.75;7.63;;;-0.90;1.00;;;;;;4900509;29;20066;-74
2021/03/07 07:02:10;;;;;;;12.98;7.47;;;-0.90;1.00;;;;;;4908067;29;20057;-75
2021/03/07 07:04:44;;;;;;;12.50;7.35;;;-0.80;1.00;;;;;;4903254;29;20112;-77
2021/03/07 07:07:13;;;;;;;13.52;7.05;;;-0.60;1.00;;;;;;4897807;29;20479;-79
2021/03/07 07:09:41;;;;;;;10.95;6.22;;;-0.50;1.00;;;;;;4901343;29;20067;-75
2021/03/07 07:12:18;;;;;;;12.77;6.60;;;-0.40;1.00;;;;;;4910367;29;20184;-75
2021/03/07 07:14:45;;;;;;;12.30;7.25;;;-0.30;1.00;;;;;;4898261;29;20060;-73
2021/03/07 07:17:14;;;;;;;10.15;6.30;;;-0.20;1.00;;;;;;4900629;29;20130;-82
2021/03/07 07:19:43;;;;;;;9.75;6.20;;;-0.10;1.00;;;;;;4904466;29;20078;-75
2021/03/07 07:22:11;;;;;;;12.30;6.57;;;0.00;1.00;;;;;;4915102;29;20078;-78
2021/03/07 07:24:39;;;;;;;10.45;6.15;;;0.00;1.00;;;;;;4908732;29;20418;-77
2021/03/07 07:27:06;;;;;;;9.50;6.03;;;0.10;1.00;;;;;;4907359;29;20867;-78
2021/03/07 07:29:34;;;;;;;12.13;6.40;;;0.20;1.00;;;;;;4902181;29;20058;-77
2021/03/07 07:32:06;;;;;;;9.75;5.43;;;0.30;1.00;;;;;;4914862;29;20071;-78
2021/03/07 07:34:37;;;;;;;8.07;5.43;;;0.40;1.00;;;;;;4913752;29;20052;-77
2021/03/07 07:37:09;;;;;;;8.48;5.43;;;0.40;1.00;;;;;;4900162;29;20056;-77
2021/03/07 07:39:38;;;;;;;10.32;5.72;;;0.60;1.00;;;;;;4901513;29;20048;-77
2021/03/07 07:42:25;;;;;;;10.27;5.97;;;0.70;1.00;;;;;;4903976;29;20077;-76
2021/03/07 07:44:54;;;;;;;10.27;6.00;;;0.80;1.00;;;;;;4907316;29;20495;-75
2021/03/07 07:47:21;;;;;;;8.95;5.53;;;0.80;1.00;;;;;;4903308;29;20529;-76
2021/03/07 07:49:50;;;;;;;9.90;5.85;;;0.80;1.00;;;;;;4904673;29;20060;-76
2021/03/07 07:52:39;;;;;;;9.23;5.75;;;1.00;1.00;;;;;;4907076;29;20063;-78
2021/03/07 07:55:14;;;;;;;10.73;6.50;;;0.90;1.00;;;;;;4909136;29;20051;-75
2021/03/07 07:57:47;;;;;;;8.65;5.40;;;1.00;1.00;;;;;;4897012;29;20056;-75
2021/03/07 08:00:21;;;;;;;11.20;6.55;;;1.10;1.00;;;;;;4900485;29;20052;-77
2021/03/07 08:02:53;;;;;;;8.90;5.93;;;1.10;1.00;;;;;;4902457;29;20055;-77
2021/03/07 08:05:41;;;;;;;8.65;6.00;;;1.30;1.00;;;;;;4904655;29;20494;-77
2021/03/07 08:08:15;;;;;;;9.05;5.85;;;1.40;1.00;;;;;;4895187;29;20066;-77
2021/03/07 08:10:50;;;;;;;11.00;5.70;;;1.50;1.00;;;;;;4906363;29;20446;-77
2021/03/07 08:13:42;;;;;;;14.82;6.25;;;1.60;1.00;;;;;;4905772;29;20519;-76
2021/03/07 08:16:09;;;;;;;11.30;5.93;;;1.70;1.00;;;;;;4906069;29;20052;-76
2021/03/07 08:18:48;;;;;;;10.15;5.80;;;1.70;1.00;;;;;;4893881;29;20135;-76
2021/03/07 08:21:16;;;;;;;9.15;5.88;;;1.80;1.00;;;;;;4905734;29;20507;-76
2021/03/07 08:24:01;;;;;;;10.65;5.40;;;1.90;1.00;;;;;;4906314;29;20063;-75
2021/03/07 08:26:52;;;;;;;10.02;5.70;;;1.90;1.00;;;;;;4905946;29;20079;-76
2021/03/07 08:29:47;;;;;;;9.68;5.75;;;2.00;1.00;;;;;;4897677;29;20463;-81
2021/03/07 08:32:34;;;;;;;10.32;6.10;;;2.10;1.00;;;;;;4908348;29;20056;-76
2021/03/07 08:35:09;;;;;;;11.70;6.25;;;2.30;1.00;;;;;;4901894;29;20048;-77
2021/03/07 08:37:37;;;;;;;8.73;6.10;;;2.40;1.00;;;;;;4892677;29;20040;-78
2021/03/07 08:40:27;;;;;;;9.35;5.88;;;2.50;1.00;;;;;;4902030;29;20059;-78
2021/03/07 08:42:55;;;;;;;9.68;5.85;;;2.60;1.00;;;;;;4906342;29;20048;-78
2021/03/07 08:45:24;;;;;;;14.35;6.65;;;2.70;1.00;;;;;;4907818;29;20048;-79
2021/03/07 08:47:56;;;;;;;9.38;5.80;;;2.80;1.00;;;;;;4898236;29;20060;-78
2021/03/07 08:50:25;;;;;;;10.60;6.05;;;2.90;1.00;;;;;;4905992;29;20878;-79
2021/03/07 08:52:52;;;;;;;8.77;6.00;;;3.00;1.00;;;;;;4903938;29;20057;-79
2021/03/07 08:55:19;;;;;;;9.18;6.18;;;2.90;1.00;;;;;;4905095;29;20053;-78
2021/03/07 08:57:49;;;;;;;7.85;5.25;;;3.10;1.00;;;;;;4896844;29;20062;-78
2021/03/07 09:00:18;;;;;;;10.63;6.07;;;3.10;1.00;;;;;;4902025;29;20415;-78
2021/03/07 09:02:49;;;;;;;11.15;5.88;;;3.30;1.00;;;;;;4907660;29;20056;-78
2021/03/07 09:05:27;;;;;;;9.90;6.15;;;3.50;1.00;;;;;;4897559;29;20056;-79
2021/03/07 09:07:59;;;;;;;10.23;5.90;;;3.40;1.00;;;;;;4896548;29;20061;-75
2021/03/07 09:10:30;;;;;;;9.80;6.13;;;3.20;1.00;;;;;;4901627;29;20132;-76
2021/03/07 09:13:07;;;;;;;10.35;6.57;;;3.50;1.00;;;;;;4913165;29;20138;-77
2021/03/07 09:15:35;;;;;;;11.93;6.72;;;3.70;1.00;;;;;;4899584;29;20052;-76
2021/03/07 09:18:03;;;;;;;16.50;7.35;;;4.00;1.00;;;;;;4893271;29;20452;-75
2021/03/07 09:20:41;;;;;;;11.10;7.15;;;4.10;1.00;;;;;;4903717;29;20067;-75
2021/03/07 09:23:27;;;;;;;13.00;7.03;;;4.00;1.00;;;;;;4902634;29;20054;-75
2021/03/07 09:25:54;;;;;;;10.85;6.80;;;3.70;1.00;;;;;;4904332;29;20526;-76
2021/03/07 09:28:34;;;;;;;10.82;7.10;;;4.10;1.00;;;;;;4901980;29;20059;-77
2021/03/07 09:31:02;;;;;;;10.82;6.53;;;4.20;1.00;;;;;;4899435;29;20495;-75
2021/03/07 09:33:29;;;;;;;10.13;6.95;;;4.00;1.00;;;;;;4908972;29;20059;-78
2021/03/07 09:36:01;;;;;;;11.77;7.18;;;4.00;1.00;;;;;;4912968;29;20056;-77
2021/03/07 09:38:39;;;;;;;11.63;7.82;;;4.20;1.00;;;;;;4903927;29;20048;-80
2021/03/07 09:41:06;;;;;;;11.80;6.93;;;4.50;1.00;;;;;;4912306;29;20060;-77
2021/03/07 09:43:35;;;;;;;11.23;7.57;;;4.80;1.00;;;;;;4912217;29;20048;-76
2021/03/07 09:46:02;;;;;;;11.98;7.18;;;4.70;1.00;;;;;;4911835;29;20578;-78
2021/03/07 09:48:35;;;;;;;12.63;7.80;;;4.80;1.00;;;;;;4902277;29;20075;-78
2021/03/07 09:51:04;;;;;;;16.23;8.68;;;5.00;1.00;;;;;;4908924;29;20540;-76
2021/03/07 09:53:34;;;;;;;11.85;7.78;;;4.70;1.00;;;;;;4911384;29;20534;-76
2021/03/07 09:56:02;;;;;;;13.35;7.90;;;4.80;1.00;;;;;;4910716;29;20131;-76
2021/03/07 09:58:36;;;;;;;12.85;7.78;;;5.00;1.00;;;;;;4899080;29;20048;-76
2021/03/07 10:01:04;;;;;;;;;;;4.80;1.00;;;;;;4905863;29;20056;-76
2021/03/07 10:03:32;;;;;;;11.82;8.02;;;4.90;1.00;;;;;;4904400;29;19931;-76
2021/03/07 10:06:11;;;;;;;15.38;8.93;;;5.10;1.00;;;;;;4909476;29;20091;-76
2021/03/07 10:08:40;;;;;;;15.50;8.60;;;5.30;1.00;;;;;;4895241;29;20127;-79
2021/03/07 10:11:20;;;;;;;12.93;8.20;;;5.50;1.00;;;;;;4905533;29;20850;-76
2021/03/07 10:13:59;;;;;;;12.52;8.48;;;5.70;1.00;;;;;;4904088;29;20148;-77
2021/03/07 10:16:28;;;;;;;12.80;8.23;;;6.10;1.00;;;;;;4906533;29;20052;-78
2021/03/07 10:19:12;;;;;;;13.85;8.48;;;6.30;1.00;;;;;;4897359;29;20068;-77
2021/03/07 10:21:40;;;;;;;13.30;9.48;;;5.80;1.00;;;;;;4906417;29;20048;-78
2021/03/07 10:24:13;;;;;;;13.35;8.52;;;6.20;1.00;;;;;;4899911;29;20060;-78
2021/03/07 10:26:41;;;;;;;13.25;8.35;;;6.00;1.00;;;;;;4909921;29;20060;-77
2021/03/07 10:29:26;;;;;;;12.48;8.43;;;6.30;1.00;;;;;;4899648;29;20052;-81
2021/03/07 10:32:18;;;;;;;12.93;8.70;;;6.40;1.00;;;;;;4900945;29;20149;-79
2021/03/07 10:34:50;;;;;;;12.15;8.77;;;6.30;1.00;;;;;;4901318;29;20080;-78
2021/03/07 10:37:38;;;;;;;14.88;9.45;;;6.10;1.00;;;;;;4903453;29;20048;-77
2021/03/07 10:40:08;;;;;;;13.23;8.95;;;6.20;1.00;;;;;;4906380;29;20047;-80
2021/03/07 10:42:36;;;;;;;14.27;8.82;;;6.60;1.00;;;;;;4906825;29;20056;-77
2021/03/07 10:45:19;;;;;;;13.07;8.75;;;6.30;1.00;;;;;;4911370;29;20068;-79
2021/03/07 10:48:00;;;;;;;14.73;8.73;;;6.70;1.00;;;;;;4893998;29;20063;-78
2021/03/07 10:50:28;;;;;;;12.65;8.43;;;6.50;1.00;;;;;;4907025;29;20499;-80
2021/03/07 10:52:55;;;;;;;12.68;8.00;;;6.60;1.00;;;;;;4909373;29;20053;-76
2021/03/07 10:55:23;;;;;;;12.38;8.13;;;6.70;1.00;;;;;;4907216;29;20052;-77
2021/03/07 10:57:50;;;;;;;13.43;8.68;;;6.80;1.00;;;;;;4899343;29;20045;-78
2021/03/07 11:00:20;;;;;;;15.93;9.30;;;7.00;1.00;;;;;;4900778;29;20079;-79
2021/03/07 11:02:47;;;;;;;11.68;7.97;;;7.50;1.00;;;;;;4906614;29;20417;-77
2021/03/07 11:05:16;;;;;;;13.07;8.35;;;6.80;1.00;;;;;;4902946;29;20060;-81
2021/03/07 11:07:44;;;;;;;11.45;7.88;;;6.80;1.00;;;;;;4898722;29;20054;-78
2021/03/07 11:10:13;;;;;;;12.68;7.97;;;6.90;1.00;;;;;;4902344;29;20091;-78
2021/03/07 11:12:40;;;;;;;10.23;7.57;;;7.00;1.00;;;;;;4893930;29;20696;-78
2021/03/07 11:15:10;;;;;;;11.27;8.18;;;6.90;1.00;;;;;;4904123;29;20048;-78
2021/03/07 11:17:37;;;;;;;13.23;8.95;;;7.30;1.00;;;;;;4902093;29;20431;-78
2021/03/07 11:20:07;;;;;;;12.10;8.25;;;7.20;1.00;;;;;;4907110;29;20111;-78
2021/03/07 11:22:34;;;;;;;11.00;7.97;;;7.30;1.00;;;;;;4907703;29;20059;-79
2021/03/07 11:25:00;;;;;;;11.85;8.77;;;7.60;1.00;;;;;;4907392;29;20062;-78
2021/03/07 11:27:27;;;;;;;10.98;7.88;;;7.30;1.00;;;;;;4904765;29;20058;-76
2021/03/07 11:29:54;;;;;;;10.70;7.93;;;6.80;1.00;;;;;;4904009;29;20052;-77
2021/03/07 11:32:21;;;;;;;11.10;8.07;;;6.50;1.00;;;;;;4908596;29;20126;-72
2021/03/07 11:34:49;;;;;;;12.85;8.07;;;6.40;1.00;;;;;;4903643;29;20104;-72
2021/03/07 11:37:16;;;;;;;12.43;8.20;;;6.50;1.00;;;;;;4900379;29;20044;-71
2021/03/07 11:39:43;;;;;;;12.35;8.15;;;6.60;1.00;;;;;;4902864;29;20072;-73
2021/03/07 11:42:10;;;;;;;11.68;7.57;;;6.90;1.00;;;;;;4902111;29;20052;-72
2021/03/07 11:44:37;;;;;;;12.43;8.15;;;6.50;1.00;;;;;;4901557;29;20415;-73
2021/03/07 11:47:05;;;;;;;11.77;8.15;;;6.60;1.00;;;;;;4898479;29;20117;-70
2021/03/07 11:49:41;;;;;;;15.57;8.27;;;6.30;1.00;;;;;;4896092;29;20380;-70
2021/03/07 11:52:10;;;;;;;13.70;8.43;;;6.70;1.00;;;;;;4904416;29;20103;-72
2021/03/07 11:54:38;;;;;;;11.95;8.23;;;6.90;1.00;;;;;;4904344;29;20044;-69
2021/03/07 11:57:05;;;;;;;11.80;8.10;;;7.20;1.00;;;;;;4896772;29;20056;-70
2021/03/07 11:59:33;;;;;;;12.32;9.02;;;7.30;1.00;;;;;;4898586;29;20577;-71
2021/03/07 12:02:01;;;;;;;14.85;9.60;;;7.30;1.00;;;;;;4903760;29;20123;-69
2021/03/07 12:04:28;;;;;;;13.07;8.20;;;7.30;1.00;;;;;;4902832;29;20567;-70
2021/03/07 12:06:56;;;;;;;12.60;8.55;;;7.20;1.00;;;;;;4898759;29;20056;-70
2021/03/07 12:09:23;;;;;;;15.57;8.43;;;7.10;1.00;;;;;;4896205;29;20059;-69
2021/03/07 12:11:50;;;;;;;12.30;8.40;;;7.10;1.00;;;;;;4902816;29;20048;-71
2021/03/07 12:14:17;;;;;;;14.10;8.35;;;7.10;1.00;;;;;;4908301;29;20056;-69
2021/03/07 12:16:44;;;;;;;12.50;8.52;;;7.10;1.00;;;;;;4900974;29;20063;-73
2021/03/07 12:19:11;;;;;;;11.27;7.85;;;7.10;1.00;;;;;;4892636;29;20052;-70
2021/03/07 12:21:38;;;;;;;12.13;7.95;;;7.10;1.00;;;;;;4901547;29;20056;-70
2021/03/07 12:24:05;;;;;;;15.90;9.02;;;7.30;1.00;;;;;;4903072;29;20052;-68
2021/03/07 12:26:33;;;;;;;12.15;8.20;;;7.20;1.00;;;;;;4897436;29;20062;-69
2021/03/07 12:29:00;;;;;;;15.32;7.68;;;7.10;1.00;;;;;;4897787;29;20048;-74
2021/03/07 12:31:28;;;;;;;14.80;8.55;;;7.20;1.00;;;;;;4901379;29;20083;-69
2021/03/07 12:33:57;;;;;;;12.02;8.25;;;7.70;1.00;;;;;;4900604;29;20059;-69
2021/03/07 12:36:24;;;;;;;13.05;9.35;;;7.80;1.00;;;;;;4903731;29;20514;-72
2021/03/07 12:38:52;;;;;;;11.05;7.90;;;7.60;1.00;;;;;;4891847;29;20059;-70
2021/03/07 12:41:19;;;;;;;11.25;7.97;;;7.80;1.00;;;;;;4904979;29;20131;-71
2021/03/07 12:43:47;;;;;;;13.00;9.52;;;7.40;1.00;;;;;;4902189;29;20076;-71
2021/03/07 12:46:14;;;;;;;13.45;8.63;;;7.30;1.00;;;;;;4904665;29;20048;-71
2021/03/07 12:48:41;;;;;;;13.90;8.40;;;7.50;1.00;;;;;;4893502;29;20127;-70
2021/03/07 12:51:08;;;;;;;12.15;8.60;;;7.50;1.00;;;;;;4903808;29;20507;-70
2021/03/07 12:53:35;;;;;;;14.95;9.15;;;7.50;1.00;;;;;;4901876;29;20048;-73
2021/03/07 12:56:02;;;;;;;11.77;8.73;;;7.60;1.00;;;;;;4903108;29;20391;-70
2021/03/07 12:58:29;;;;;;;13.25;8.55;;;7.40;1.00;;;;;;4902542;29;20055;-72
2021/03/07 13:00:58;;;;;;;12.65;8.50;;;7.60;1.00;;;;;;4899535;29;20053;-71
2021/03/07 13:03:26;;;;;;;13.32;8.63;;;7.60;1.00;;;;;;4901956;29;20528;-77
2021/03/07 13:05:53;;;;;;;13.55;9.25;;;6.90;1.00;;;;;;4903006;29;20048;-76